Time;durP1;ratioP1;P1;durP2;ratioP2;P2;SDS_P1;SDS_P2;PMS_P1;PMS_P2;Temp;Humidity;BMP_temperature;BMP_pressure;BME280_temperature;BME280_humidity;BME280_pressure;Samples;Min_cycle;Max_cycle;Signal;HPM_P1;HPM_P2
2021/06/27 00:00:19;;;;;;;5.18;4.65;;;;;;;13.03;93.20;101241.56;5057771;28;20086;-80
2021/06/27 00:02:46;;;;;;;5.30;4.60;;;;;;;13.00;93.23;101238.06;5064518;28;20041;-82
2021/06/27 00:05:16;;;;;;;5.50;4.80;;;;;;;12.93;93.66;101237.31;5055774;28;20117;-80
2021/06/27 00:07:43;;;;;;;5.95;4.63;;;;;;;12.87;93.92;101241.00;5060038;28;20062;-82
2021/06/27 00:10:23;;;;;;;6.85;5.00;;;;;;;12.83;94.14;101238.44;5075736;28;20058;-82
2021/06/27 00:12:50;;;;;;;5.55;4.57;;;;;;;12.77;94.54;101243.84;5058092;28;20071;-81
2021/06/27 00:15:30;;;;;;;5.13;4.60;;;;;;;12.72;94.66;101241.31;5036787;28;20473;-82
2021/06/27 00:17:58;;;;;;;4.47;3.97;;;;;;;12.70;94.40;101236.94;5062188;28;20379;-81
2021/06/27 00:20:27;;;;;;;5.32;4.55;;;;;;;12.75;94.10;101238.56;5079679;28;20105;-82
2021/06/27 00:22:53;;;;;;;5.07;4.57;;;;;;;12.75;94.24;101240.34;5046050;28;20460;-81
2021/06/27 00:25:23;;;;;;;5.88;4.47;;;;;;;12.72;94.30;101240.44;5044803;28;20041;-82
2021/06/27 00:27:53;;;;;;;5.05;4.38;;;;;;;12.71;93.87;101236.91;5057943;28;20045;-81
2021/06/27 00:30:21;;;;;;;6.15;4.10;;;;;;;12.69;94.58;101238.69;5067403;28;20040;-81
2021/06/27 00:32:48;;;;;;;5.65;4.82;;;;;;;12.66;94.06;101225.50;5060895;28;20044;-81
2021/06/27 00:35:16;;;;;;;5.82;5.22;;;;;;;12.58;94.99;101233.63;5058586;28;20120;-81
2021/06/27 00:37:44;;;;;;;5.18;4.47;;;;;;;12.61;94.43;101235.31;5045592;28;20041;-81
2021/06/27 00:40:17;;;;;;;6.68;4.63;;;;;;;12.58;94.64;101235.38;5044790;28;20537;-81
2021/06/27 00:42:44;;;;;;;5.30;4.40;;;;;;;12.49;96.05;101238.22;5056242;28;20045;-80
2021/06/27 00:45:12;;;;;;;5.88;4.90;;;;;;;12.43;96.24;101231.25;5037982;28;20102;-80
2021/06/27 00:47:40;;;;;;;4.43;3.92;;;;;;;12.43;96.10;101231.25;5069252;28;20097;-81
2021/06/27 00:50:11;;;;;;;8.95;4.95;;;;;;;12.38;96.12;101230.47;5048627;28;20072;-82
2021/06/27 00:52:38;;;;;;;5.78;4.80;;;;;;;12.33;96.61;101233.22;5038514;28;20037;-80
2021/06/27 00:55:05;;;;;;;4.80;4.00;;;;;;;12.30;96.88;101227.97;5036349;28;20071;-82
2021/06/27 00:57:32;;;;;;;5.63;5.10;;;;;;;12.36;96.21;101225.22;5040148;28;20040;-81
2021/06/27 01:00:01;;;;;;;5.13;4.63;;;;;;;12.35;96.21;101231.38;5048685;28;20045;-80
2021/06/27 01:02:28;;;;;;;5.53;4.97;;;;;;;12.24;97.78;101236.03;5060936;28;20058;-81
2021/06/27 01:04:55;;;;;;;5.97;4.50;;;;;;;12.19;98.10;101227.31;5043414;28;20041;-80
2021/06/27 01:07:21;;;;;;;5.60;4.55;;;;;;;12.16;97.61;101230.00;5026540;28;20456;-81
2021/06/27 01:09:48;;;;;;;6.47;4.75;;;;;;;12.15;97.00;101230.91;5019666;28;20041;-80
2021/06/27 01:12:15;;;;;;;5.55;4.50;;;;;;;12.18;96.69;101222.00;5066158;28;20459;-80
2021/06/27 01:14:41;;;;;;;4.93;4.13;;;;;;;12.15;96.96;101225.59;5054952;28;20037;-80
2021/06/27 01:17:08;;;;;;;5.60;4.22;;;;;;;12.15;96.36;101222.94;5071062;28;20101;-81
2021/06/27 01:19:35;;;;;;;5.75;4.78;;;;;;;12.15;96.19;101219.44;5054490;28;20049;-80
2021/06/27 01:22:02;;;;;;;7.63;4.78;;;;;;;12.12;96.15;101225.66;5018737;28;20076;-80
2021/06/27 01:24:28;;;;;;;5.22;4.30;;;;;;;12.04;96.76;101215.19;5083064;28;20413;-80
2021/06/27 01:26:55;;;;;;;5.05;4.55;;;;;;;12.04;96.39;101214.31;5024910;28;20045;-80
2021/06/27 01:29:22;;;;;;;5.88;4.45;;;;;;;12.00;96.62;101215.28;5050624;28;20040;-80
2021/06/27 01:31:48;;;;;;;6.45;4.78;;;;;;;11.93;97.65;101208.31;5049130;28;20076;-80
2021/06/27 01:34:15;;;;;;;5.80;4.55;;;;;;;11.89;97.28;101206.66;5052546;28;20048;-80
2021/06/27 01:36:42;;;;;;;5.63;4.60;;;;;;;11.88;96.84;101204.91;5020263;28;20484;-80
2021/06/27 01:39:08;;;;;;;5.95;4.93;;;;;;;11.83;97.45;101207.63;5064882;28;20076;-81
2021/06/27 01:41:35;;;;;;;5.57;4.72;;;;;;;11.80;97.58;101202.38;5034350;28;20037;-80
2021/06/27 01:44:02;;;;;;;6.88;5.38;;;;;;;11.75;97.83;101194.47;5033328;28;20056;-79
2021/06/27 01:46:29;;;;;;;5.78;5.20;;;;;;;11.70;98.08;101192.81;5025142;28;20094;-80
2021/06/27 01:48:56;;;;;;;6.30;4.88;;;;;;;11.68;98.12;101184.00;5034742;28;20098;-80
2021/06/27 01:51:22;;;;;;;5.85;5.18;;;;;;;11.63;98.19;101192.03;5035173;28;20048;-80
2021/06/27 01:53:49;;;;;;;6.35;4.93;;;;;;;11.59;97.92;101187.69;5058861;28;20068;-82
2021/06/27 01:56:15;;;;;;;6.13;4.88;;;;;;;11.52;98.38;101183.41;5036761;28;20122;-80
2021/06/27 01:58:51;;;;;;;6.13;4.47;;;;;;;11.50;97.80;101187.84;5078251;28;20067;-79
2021/06/27 02:01:22;;;;;;;5.80;4.80;;;;;;;11.49;97.67;101186.09;5063536;28;20452;-81
2021/06/27 02:03:50;;;;;;;6.75;4.70;;;;;;;11.43;98.13;101187.03;5068623;28;20049;-81
2021/06/27 02:06:18;;;;;;;6.65;5.60;;;;;;;11.44;99.01;101194.13;5050239;28;20076;-81
2021/06/27 02:08:45;;;;;;;6.68;5.03;;;;;;;11.40;99.16;101195.03;5023777;28;20110;-81
2021/06/27 02:11:13;;;;;;;5.55;4.65;;;;;;;11.36;98.06;101187.19;5053283;28;20044;-82
2021/06/27 02:13:40;;;;;;;6.30;5.05;;;;;;;11.34;97.99;101181.03;5072119;28;20178;-81
2021/06/27 02:16:07;;;;;;;5.45;4.93;;;;;;;11.34;98.57;101181.03;5033659;28;20111;-80
2021/06/27 02:18:35;;;;;;;6.00;5.40;;;;;;;11.31;98.32;101181.09;5058642;28;20052;-80
2021/06/27 02:21:05;;;;;;;6.38;4.93;;;;;;;11.27;98.45;101169.69;5058991;28;20043;-80
2021/06/27 02:23:32;;;;;;;7.47;5.30;;;;;;;11.24;98.70;101178.53;5025566;28;20118;-80
2021/06/27 02:26:00;;;;;;;5.50;4.72;;;;;;;11.21;97.55;101173.28;5050509;28;20033;-79
2021/06/27 02:28:28;;;;;;;6.03;4.68;;;;;;;11.17;98.34;101168.06;5065470;28;20413;-79
2021/06/27 02:30:55;;;;;;;6.25;5.35;;;;;;;11.14;98.79;101178.69;5076587;28;20090;-81
2021/06/27 02:33:21;;;;;;;6.03;4.93;;;;;;;11.07;98.92;101171.75;5042866;28;20445;-79
2021/06/27 02:35:49;;;;;;;6.40;5.18;;;;;;;11.05;99.16;101168.25;5061130;28;20037;-81
2021/06/27 02:38:16;;;;;;;5.50;5.00;;;;;;;11.00;99.12;101163.00;5061337;28;20471;-80
2021/06/27 02:40:43;;;;;;;6.13;4.65;;;;;;;10.99;98.99;101166.56;5045847;28;20764;-80
2021/06/27 02:43:11;;;;;;;6.43;5.22;;;;;;;10.94;99.21;101177.22;5060243;28;20540;-83
2021/06/27 02:45:38;;;;;;;7.35;5.00;;;;;;;10.92;99.46;101172.81;5048971;28;20552;-79
2021/06/27 02:48:05;;;;;;;5.88;4.72;;;;;;;10.92;98.76;101171.03;5069876;28;20044;-82
2021/06/27 02:50:35;;;;;;;6.15;5.18;;;;;;;10.97;98.30;101163.06;5057242;28;20044;-81
2021/06/27 02:53:03;;;;;;;6.28;4.95;;;;;;;10.95;98.97;101173.66;5068416;28;20120;-80
2021/06/27 02:55:30;;;;;;;6.15;5.15;;;;;;;10.90;99.54;101171.97;5053841;28;20044;-80
2021/06/27 02:57:56;;;;;;;6.50;5.35;;;;;;;10.84;100.00;101169.41;5048134;28;20048;-79
2021/06/27 03:00:23;;;;;;;5.75;4.75;;;;;;;10.82;100.00;101173.84;5040831;28;20040;-80
2021/06/27 03:02:50;;;;;;;5.72;4.97;;;;;;;10.78;100.00;101173.03;5034544;28;20041;-79
2021/06/27 03:05:17;;;;;;;5.25;4.72;;;;;;;10.77;100.00;101167.75;5056894;28;20100;-82
2021/06/27 03:07:44;;;;;;;6.15;4.80;;;;;;;10.74;100.00;101167.78;5069239;28;20032;-79
2021/06/27 03:10:14;;;;;;;6.70;5.10;;;;;;;10.78;99.92;101173.03;5048464;28;20052;-80
2021/06/27 03:12:42;;;;;;;5.75;4.57;;;;;;;10.82;99.48;101165.91;5051519;28;20106;-80
2021/06/27 03:15:11;;;;;;;5.63;4.60;;;;;;;10.78;99.82;101159.81;5068779;28;20060;-80
2021/06/27 03:17:38;;;;;;;5.78;4.80;;;;;;;10.84;99.99;101162.34;5056901;28;20048;-80
2021/06/27 03:20:06;;;;;;;6.25;5.18;;;;;;;10.82;100.00;101173.84;5046444;28;20036;-79
2021/06/27 03:22:33;;;;;;;5.93;5.30;;;;;;;10.84;100.00;101169.41;5046907;28;20441;-79
2021/06/27 03:25:00;;;;;;;5.60;4.97;;;;;;;10.89;100.00;101164.94;5037342;28;20862;-81
2021/06/27 03:27:27;;;;;;;5.85;4.78;;;;;;;10.88;100.00;101172.00;5051354;28;20056;-79
2021/06/27 03:29:53;;;;;;;5.65;4.60;;;;;;;10.85;100.00;101165.88;5052311;28;20090;-82
2021/06/27 03:32:20;;;;;;;5.88;5.28;;;;;;;10.85;100.00;101179.97;5045986;28;20048;-81
2021/06/27 03:34:47;;;;;;;5.32;4.82;;;;;;;10.84;100.00;101175.56;5052498;28;20090;-80
2021/06/27 03:37:13;;;;;;;6.40;5.28;;;;;;;10.88;100.00;101171.13;5047741;28;20075;-79
2021/06/27 03:39:40;;;;;;;5.38;4.85;;;;;;;10.89;100.00;101168.44;5051346;28;20052;-79
2021/06/27 03:42:07;;;;;;;6.30;5.07;;;;;;;10.82;100.00;101177.34;5051418;28;20079;-79
2021/06/27 03:44:34;;;;;;;7.65;5.93;;;;;;;10.84;100.00;101172.03;5046810;28;20889;-80
2021/06/27 03:47:00;;;;;;;5.25;4.60;;;;;;;10.87;100.00;101175.53;5061777;28;20036;-78
2021/06/27 03:49:27;;;;;;;5.70;4.72;;;;;;;10.91;100.00;101173.72;5071654;28;20048;-80
2021/06/27 03:51:54;;;;;;;5.68;4.88;;;;;;;10.95;100.00;101171.03;5064473;28;20054;-78
2021/06/27 03:54:21;;;;;;;6.07;5.47;;;;;;;11.02;100.00;101173.59;5056150;28;20048;-79
2021/06/27 03:56:47;;;;;;;6.22;5.25;;;;;;;11.01;100.00;101177.97;5067589;28;20036;-79
2021/06/27 03:59:14;;;;;;;7.25;5.50;;;;;;;11.03;100.00;101176.22;5046487;28;20122;-79
2021/06/27 04:01:41;;;;;;;7.53;6.05;;;;;;;11.04;100.00;101177.94;5038581;28;20048;-80
2021/06/27 04:04:07;;;;;;;7.07;5.30;;;;;;;11.06;100.00;101177.94;5041735;28;20044;-79
2021/06/27 04:06:34;;;;;;;6.68;5.75;;;;;;;11.08;100.00;101176.13;5031244;28;20041;-79
2021/06/27 04:09:01;;;;;;;5.82;4.90;;;;;;;11.11;100.00;101174.31;5044961;28;20066;-80
2021/06/27 04:11:27;;;;;;;5.75;4.72;;;;;;;11.13;100.00;101176.94;5034273;28;20045;-79
2021/06/27 04:13:54;;;;;;;7.50;5.50;;;;;;;11.20;100.00;101190.06;5057109;28;20040;-80
2021/06/27 04:16:21;;;;;;;5.78;4.55;;;;;;;11.28;100.00;101177.59;5048098;28;21506;-80
2021/06/27 04:18:48;;;;;;;7.15;5.10;;;;;;;11.33;100.00;101185.44;5041691;28;20384;-81
2021/06/27 04:21:15;;;;;;;5.70;4.80;;;;;;;11.37;100.00;101179.22;5055538;28;20040;-79
2021/06/27 04:23:44;;;;;;;5.80;4.88;;;;;;;11.40;100.00;101175.66;5049992;28;20045;-80
2021/06/27 04:26:11;;;;;;;6.28;4.75;;;;;;;11.45;100.00;101177.34;5057798;28;20056;-80
2021/06/27 04:28:37;;;;;;;8.05;4.82;;;;;;;11.52;100.00;101181.63;5035688;28;20041;-81
2021/06/27 04:31:04;;;;;;;6.75;4.93;;;;;;;11.62;100.00;101186.78;5075508;28;20037;-80
2021/06/27 04:33:31;;;;;;;4.97;4.30;;;;;;;11.67;100.00;101190.19;5051929;28;20079;-80
2021/06/27 04:35:57;;;;;;;5.13;4.45;;;;;;;11.71;100.00;101189.28;5034523;28;20037;-79
2021/06/27 04:38:25;;;;;;;7.05;5.35;;;;;;;11.77;100.00;101194.44;5034596;28;21668;-80
2021/06/27 04:40:52;;;;;;;5.07;4.47;;;;;;;11.90;100.00;101188.09;5050415;28;20532;-81
2021/06/27 04:43:19;;;;;;;6.05;4.70;;;;;;;12.00;100.00;101179.06;5063451;28;20420;-80
2021/06/27 04:45:46;;;;;;;5.25;4.75;;;;;;;12.07;100.00;101178.06;5049646;28;20033;-80
2021/06/27 04:48:13;;;;;;;6.38;4.43;;;;;;;12.14;100.00;101175.31;5036879;28;20039;-80
2021/06/27 04:50:39;;;;;;;5.38;4.85;;;;;;;12.20;100.00;101177.84;5032391;28;20056;-79
2021/06/27 04:53:11;;;;;;;6.50;5.82;;;;;;;12.23;100.00;101183.06;5068209;28;20040;-79
2021/06/27 04:55:38;;;;;;;5.10;4.32;;;;;;;12.29;100.00;101180.31;5048420;28;20044;-80
2021/06/27 04:58:05;;;;;;;6.05;5.10;;;;;;;12.34;100.00;101183.72;5023435;28;20052;-79
2021/06/27 05:00:32;;;;;;;6.28;4.88;;;;;;;12.40;100.00;101173.91;5050853;28;20037;-81
2021/06/27 05:03:01;;;;;;;6.65;5.15;;;;;;;12.51;100.00;101175.44;5032351;28;20075;-79
2021/06/27 05:05:28;;;;;;;6.43;4.82;;;;;;;12.62;100.00;101174.34;5018727;28;20132;-80
2021/06/27 05:07:54;;;;;;;6.32;5.18;;;;;;;12.69;100.00;101183.03;5049270;28;20557;-80
2021/06/27 05:10:21;;;;;;;5.20;4.70;;;;;;;12.80;100.00;101185.47;5039315;28;20037;-81
2021/06/27 05:12:48;;;;;;;6.28;5.03;;;;;;;12.88;100.00;101184.41;5034433;28;20044;-79
2021/06/27 05:15:15;;;;;;;5.13;4.15;;;;;;;13.03;100.00;101183.19;5044586;28;20040;-82
2021/06/27 05:17:42;;;;;;;6.38;4.55;;;;;;;13.28;100.00;101183.50;5058892;28;20511;-79
2021/06/27 05:20:09;;;;;;;4.88;4.03;;;;;;;14.05;100.00;101178.06;5050684;28;20045;-81
2021/06/27 05:22:36;;;;;;;4.53;4.03;;;;;;;14.75;95.10;101180.56;5054489;28;20447;-81
2021/06/27 05:25:02;;;;;;;5.10;4.40;;;;;;;14.89;93.50;101170.41;5060362;28;20095;-79
2021/06/27 05:27:29;;;;;;;4.03;3.60;;;;;;;15.23;91.77;101171.16;5042083;28;20053;-80
2021/06/27 05:29:56;;;;;;;3.83;3.42;;;;;;;15.21;91.66;101172.03;5049414;28;20094;-81
2021/06/27 05:32:22;;;;;;;4.38;3.97;;;;;;;15.18;91.62;101166.81;5043665;28;20127;-80
2021/06/27 05:34:49;;;;;;;4.95;4.45;;;;;;;15.07;92.92;101174.28;5034605;28;20041;-80
2021/06/27 05:37:16;;;;;;;5.15;4.45;;;;;;;14.95;94.77;101179.09;5057609;28;20115;-80
2021/06/27 05:39:42;;;;;;;4.75;4.25;;;;;;;14.81;97.34;101174.19;5063464;28;20048;-80
2021/06/27 05:42:09;;;;;;;4.90;4.40;;;;;;;14.79;98.81;101179.53;5033463;28;20114;-82
2021/06/27 05:44:36;;;;;;;5.47;4.93;;;;;;;14.99;98.84;101173.66;5053692;28;20044;-81
2021/06/27 05:47:03;;;;;;;4.65;4.18;;;;;;;16.35;94.94;101177.13;5047979;28;20040;-81
2021/06/27 05:49:30;;;;;;;5.43;3.88;;;;;;;18.84;80.75;101173.13;5069570;28;20068;-81
2021/06/27 05:51:56;;;;;;;4.45;3.70;;;;;;;20.83;70.36;101167.53;5066919;28;20460;-80
2021/06/27 05:54:23;;;;;;;3.10;2.80;;;;;;;22.90;62.09;101170.53;5045381;28;20859;-81
2021/06/27 05:56:50;;;;;;;5.40;3.45;;;;;;;24.07;57.53;101172.66;5058608;28;20124;-81
2021/06/27 05:59:17;;;;;;;3.55;2.90;;;;;;;25.38;53.12;101173.19;5053366;28;20040;-81
2021/06/27 06:01:43;;;;;;;3.78;3.47;;;;;;;25.99;48.82;101164.06;5043780;28;20092;-80
2021/06/27 06:04:10;;;;;;;3.88;3.58;;;;;;;26.54;45.92;101167.03;5056849;28;20532;-82
2021/06/27 06:06:37;;;;;;;3.95;3.40;;;;;;;26.53;46.56;101171.56;5029677;28;20086;-80
2021/06/27 06:09:04;;;;;;;4.22;3.53;;;;;;;26.24;48.66;101173.84;5068376;28;20041;-80
2021/06/27 06:11:30;;;;;;;5.85;3.47;;;;;;;25.86;47.51;101174.09;5048233;28;20063;-81
2021/06/27 06:13:57;;;;;;;3.90;3.42;;;;;;;25.37;47.66;101175.03;5048320;28;20041;-80
2021/06/27 06:16:24;;;;;;;3.63;3.33;;;;;;;24.92;51.24;101163.03;5039502;28;20607;-80
2021/06/27 06:18:50;;;;;;;3.83;3.47;;;;;;;24.27;51.16;101174.81;5065866;28;20055;-82
2021/06/27 06:21:17;;;;;;;3.90;3.47;;;;;;;23.67;50.20;101175.34;5065808;28;20040;-81
2021/06/27 06:23:44;;;;;;;4.28;3.88;;;;;;;23.50;50.53;101167.50;5037386;28;20117;-80
2021/06/27 06:26:13;;;;;;;3.70;3.30;;;;;;;23.48;56.30;101164.91;5067023;28;20029;-80
2021/06/27 06:28:40;;;;;;;3.90;3.50;;;;;;;23.40;53.65;101169.94;5070381;28;20522;-80
2021/06/27 06:31:10;;;;;;;6.63;3.85;;;;;;;23.50;54.21;101167.50;5039862;28;20047;-80
2021/06/27 06:33:37;;;;;;;3.72;3.40;;;;;;;23.53;53.97;101165.44;5033954;28;20049;-80
2021/06/27 06:36:04;;;;;;;4.57;3.45;;;;;;;23.07;53.15;101172.13;5030991;28;20049;-81
2021/06/27 06:38:31;;;;;;;3.72;3.35;;;;;;;23.38;54.11;101169.19;5052283;28;20521;-81
2021/06/27 06:40:57;;;;;;;4.15;3.75;;;;;;;23.38;52.54;101165.63;5068231;28;20054;-80
2021/06/27 06:43:24;;;;;;;4.15;3.40;;;;;;;23.47;53.96;101173.09;5046273;28;20057;-81
2021/06/27 06:45:56;;;;;;;4.72;3.60;;;;;;;23.35;51.15;101174.75;5052248;28;20040;-83
2021/06/27 06:48:26;;;;;;;4.13;3.47;;;;;;;23.66;53.72;101175.47;5034600;28;20044;-84
2021/06/27 06:50:53;;;;;;;5.28;3.80;;;;;;;23.84;52.82;101166.13;5052892;28;20040;-81
2021/06/27 06:53:20;;;;;;;4.03;3.53;;;;;;;23.87;51.78;101177.56;5038945;28;20049;-81
2021/06/27 06:55:47;;;;;;;4.47;3.58;;;;;;;23.67;49.96;101169.94;5050015;28;20095;-81
2021/06/27 06:58:13;;;;;;;4.22;3.83;;;;;;;23.72;49.68;101175.06;5047080;28;20040;-80
2021/06/27 07:00:40;;;;;;;4.07;3.42;;;;;;;23.25;52.27;101170.94;5050128;28;20098;-81
2021/06/27 07:03:08;;;;;;;5.13;3.67;;;;;;;23.60;52.03;101168.63;5043752;28;20041;-80
2021/06/27 07:05:35;;;;;;;4.00;3.40;;;;;;;23.83;51.47;101167.09;5057259;28;20053;-81
2021/06/27 07:08:02;;;;;;;5.80;3.90;;;;;;;23.91;52.72;101171.97;5034065;28;20249;-80
2021/06/27 07:10:28;;;;;;;5.15;4.10;;;;;;;24.00;50.41;101179.44;5041626;28;20045;-81
2021/06/27 07:12:55;;;;;;;6.45;4.28;;;;;;;23.81;49.58;101171.72;5055087;28;20497;-81
2021/06/27 07:15:22;;;;;;;5.93;3.92;;;;;;;23.85;51.48;101173.25;5027457;28;20447;-81
2021/06/27 07:17:49;;;;;;;4.82;3.90;;;;;;;23.94;49.43;101169.91;5053583;28;20086;-79
2021/06/27 07:20:16;;;;;;;5.15;4.55;;;;;;;23.55;50.65;101171.63;5049539;28;20098;-80
2021/06/27 07:22:43;;;;;;;4.70;4.00;;;;;;;23.44;48.78;101166.03;5049981;28;20102;-80
2021/06/27 07:25:10;;;;;;;5.60;4.30;;;;;;;23.58;50.32;101171.41;5038564;28;20062;-80
2021/06/27 07:27:37;;;;;;;3.90;3.50;;;;;;;23.88;51.52;101170.34;5070549;28;20537;-81
2021/06/27 07:30:05;;;;;;;5.15;3.85;;;;;;;24.20;52.90;101169.94;5052529;28;20521;-82
2021/06/27 07:32:32;;;;;;;4.90;4.38;;;;;;;24.46;51.42;101171.72;5032818;28;20075;-81
2021/06/27 07:34:59;;;;;;;4.72;3.95;;;;;;;24.72;50.04;101161.78;5034064;28;20041;-82
2021/06/27 07:37:42;;;;;;;5.57;4.80;;;;;;;24.65;48.75;101155.97;5067434;28;20128;-81
2021/06/27 07:40:09;;;;;;;4.60;3.50;;;;;;;25.00;49.10;101157.94;5050561;28;20044;-80
2021/06/27 07:42:36;;;;;;;4.35;3.88;;;;;;;25.26;48.04;101164.16;5040964;28;20454;-79
2021/06/27 07:45:04;;;;;;;5.47;4.60;;;;;;;25.03;46.80;101165.84;5033342;28;20044;-78
2021/06/27 07:47:31;;;;;;;4.75;4.15;;;;;;;25.35;47.38;101154.50;5063184;28;20052;-78
2021/06/27 07:49:57;;;;;;;4.53;3.97;;;;;;;25.23;46.78;101156.31;5052891;28;20040;-79
2021/06/27 07:52:24;;;;;;;5.15;3.80;;;;;;;25.01;48.67;101156.97;5051236;28;20483;-81
2021/06/27 07:54:50;;;;;;;5.78;4.18;;;;;;;24.24;47.97;101158.84;5058504;28;20048;-80
2021/06/27 07:57:17;;;;;;;4.00;3.60;;;;;;;24.29;49.90;101158.50;5067330;28;20040;-81
2021/06/27 07:59:44;;;;;;;4.95;4.45;;;;;;;24.05;48.42;101164.66;5053800;28;20612;-79
2021/06/27 08:02:11;;;;;;;6.15;4.10;;;;;;;23.71;49.73;101163.41;5037907;28;20032;-78
2021/06/27 08:04:37;;;;;;;4.63;3.95;;;;;;;23.22;51.84;101165.75;5027223;28;20047;-80
2021/06/27 08:07:04;;;;;;;4.68;3.70;;;;;;;23.70;51.68;101161.63;5065403;28;20029;-79
2021/06/27 08:09:31;;;;;;;9.13;4.43;;;;;;;23.94;52.32;101159.13;5079293;28;20056;-78
2021/06/27 08:11:58;;;;;;;4.43;4.03;;;;;;;24.39;50.51;101154.25;5064366;28;20040;-79
2021/06/27 08:14:25;;;;;;;4.07;3.42;;;;;;;24.57;48.69;101147.53;5034456;28;20417;-79
2021/06/27 08:16:51;;;;;;;4.72;3.80;;;;;;;24.85;47.84;101145.53;5033803;28;20040;-78
2021/06/27 08:19:18;;;;;;;4.40;3.72;;;;;;;25.07;46.56;101148.44;5068981;28;20044;-78
2021/06/27 08:21:45;;;;;;;4.45;4.03;;;;;;;25.30;47.15;101149.44;5064004;28;20041;-79
2021/06/27 08:24:11;;;;;;;5.15;4.13;;;;;;;25.05;46.19;101150.38;5074477;28;20789;-79
2021/06/27 08:26:38;;;;;;;5.25;4.05;;;;;;;24.93;46.48;101141.31;5045997;28;20564;-79
2021/06/27 08:29:05;;;;;;;4.88;4.18;;;;;;;24.98;46.81;101144.53;5058923;28;20086;-79
2021/06/27 08:31:32;;;;;;;17.02;5.28;;;;;;;25.24;47.29;101137.25;5046729;28;20045;-79
2021/06/27 08:34:01;;;;;;;3.80;3.42;;;;;;;25.11;44.48;101136.41;5049900;28;20048;-80
2021/06/27 08:36:29;;;;;;;4.60;3.30;;;;;;;24.90;46.18;101132.56;5067050;28;20102;-80
2021/06/27 08:38:56;;;;;;;6.10;3.50;;;;;;;24.93;46.18;101130.50;5061209;28;20040;-80
2021/06/27 08:41:23;;;;;;;3.85;3.40;;;;;;;25.14;45.96;101138.91;5047965;28;20044;-82
2021/06/27 08:43:49;;;;;;;4.15;3.47;;;;;;;25.29;44.76;101127.91;5053592;28;20052;-81
2021/06/27 08:46:16;;;;;;;6.15;3.80;;;;;;;25.15;44.84;101137.94;5069760;28;20082;-81
2021/06/27 08:48:44;;;;;;;4.35;3.83;;;;;;;25.04;46.11;101140.53;5072649;28;20076;-81
2021/06/27 08:51:11;;;;;;;6.07;3.88;;;;;;;24.60;46.47;101135.63;5054901;28;20071;-82
2021/06/27 08:53:40;;;;;;;4.18;3.75;;;;;;;24.35;48.63;101136.50;5053699;28;20098;-81
2021/06/27 08:56:08;;;;;;;4.30;3.63;;;;;;;24.13;49.38;101142.50;5046864;28;20440;-82
2021/06/27 08:58:40;;;;;;;4.78;4.28;;;;;;;23.83;49.35;101146.38;5045828;28;20070;-81
2021/06/27 09:01:14;;;;;;;3.60;3.30;;;;;;;23.68;51.43;101136.59;5038037;28;20051;-81
2021/06/27 09:03:46;;;;;;;4.20;3.72;;;;;;;23.29;49.99;101132.91;5051959;28;20037;-81
2021/06/27 09:06:42;;;;;;;4.80;4.22;;;;;;;23.23;51.88;101135.13;5060166;28;20048;-80
2021/06/27 09:09:09;;;;;;;5.45;3.70;;;;;;;23.31;48.84;101132.78;5019221;28;20048;-82
2021/06/27 09:11:36;;;;;;;3.95;3.10;;;;;;;23.76;50.62;101138.78;5063439;28;20048;-82
2021/06/27 09:14:04;;;;;;;3.50;3.15;;;;;;;24.35;48.95;101137.38;5035638;28;20078;-80
2021/06/27 09:16:30;;;;;;;4.20;3.60;;;;;;;25.02;48.18;101123.53;5063828;28;20048;-82
2021/06/27 09:19:00;;;;;;;4.88;3.75;;;;;;;25.43;45.60;101130.47;5038737;28;20079;-81
2021/06/27 09:21:26;;;;;;;4.28;3.80;;;;;;;25.58;43.60;101123.03;5055998;28;20075;-81
2021/06/27 09:23:54;;;;;;;4.78;3.83;;;;;;;25.62;46.16;101129.91;5039293;28;20045;-81
2021/06/27 09:26:26;;;;;;;4.10;3.40;;;;;;;25.32;45.68;101123.16;5073463;28;20036;-83
2021/06/27 09:28:53;;;;;;;5.18;3.95;;;;;;;25.33;47.57;101124.03;5058940;28;20033;-82
2021/06/27 09:31:33;;;;;;;4.28;3.60;;;;;;;25.65;45.30;101118.88;5055179;28;20094;-81
2021/06/27 09:34:02;;;;;;;3.55;3.10;;;;;;;25.69;44.67;101109.53;5072796;28;20032;-83
2021/06/27 09:36:29;;;;;;;3.85;3.25;;;;;;;25.94;45.79;101119.38;5037793;28;20052;-82
2021/06/27 09:38:56;;;;;;;4.30;3.47;;;;;;;25.90;43.77;101105.22;5047008;28;20079;-81
2021/06/27 09:41:30;;;;;;;4.60;3.47;;;;;;;26.14;43.52;101106.97;5068248;28;20056;-82
2021/06/27 09:43:59;;;;;;;7.18;3.80;;;;;;;26.42;42.22;101108.41;5048575;28;20121;-82
2021/06/27 09:46:35;;;;;;;4.18;3.78;;;;;;;26.72;40.70;101100.50;5037947;28;20414;-82
2021/06/27 09:49:07;;;;;;;4.00;3.60;;;;;;;26.93;40.88;101103.31;5057029;28;20036;-83
2021/06/27 09:51:37;;;;;;;4.03;3.55;;;;;;;27.13;39.36;101096.25;5035900;28;20067;-82
2021/06/27 09:54:12;;;;;;;3.95;3.10;;;;;;;27.13;40.27;101088.97;5059130;28;20132;-83
2021/06/27 09:56:39;;;;;;;3.92;3.33;;;;;;;27.22;38.85;101090.06;5039366;28;20060;-81
2021/06/27 09:59:07;;;;;;;21.52;5.03;;;;;;;27.03;39.23;101089.84;5054753;28;20525;-81
2021/06/27 10:01:36;;;;;;;4.03;3.03;;;;;;;26.52;38.62;101087.69;5052560;28;20536;-81
2021/06/27 10:04:05;;;;;;;4.38;3.30;;;;;;;26.30;39.55;101086.66;5035077;28;20044;-83
2021/06/27 10:06:46;;;;;;;2.95;2.65;;;;;;;27.04;38.41;101073.47;5044967;28;20052;-80
2021/06/27 10:09:16;;;;;;;3.08;2.78;;;;;;;27.11;36.23;101080.13;5050760;28;20041;-81
2021/06/27 10:12:04;;;;;;;3.50;2.97;;;;;;;27.64;37.20;101090.16;5048650;28;20088;-81
2021/06/27 10:14:48;;;;;;;3.80;3.15;;;;;;;27.90;35.77;101082.50;5056234;28;20049;-81
2021/06/27 10:17:15;;;;;;;3.70;3.33;;;;;;;27.30;37.32;101078.56;5070250;28;20044;-81
2021/06/27 10:19:43;;;;;;;4.05;3.60;;;;;;;26.52;39.25;101080.44;5071770;28;20674;-81
2021/06/27 10:22:10;;;;;;;4.18;3.78;;;;;;;26.29;40.09;101082.25;5053625;28;20040;-81
2021/06/27 10:24:37;;;;;;;4.18;3.33;;;;;;;25.91;40.28;101073.59;5055394;28;20048;-81
2021/06/27 10:27:05;;;;;;;4.72;3.50;;;;;;;25.63;42.71;101081.09;5048514;28;20040;-80
2021/06/27 10:29:32;;;;;;;4.00;3.60;;;;;;;25.56;42.07;101074.44;5062533;28;20123;-81
2021/06/27 10:31:59;;;;;;;5.07;3.92;;;;;;;25.94;42.50;101076.03;5055690;28;20029;-83
2021/06/27 10:34:26;;;;;;;3.92;3.63;;;;;;;26.19;40.87;101081.25;5069839;28;20044;-81
2021/06/27 10:37:03;;;;;;;3.25;2.95;;;;;;;26.54;39.21;101083.00;5052572;28;20047;-81
2021/06/27 10:39:30;;;;;;;5.28;3.80;;;;;;;26.59;38.17;101083.53;5062230;28;20541;-81
2021/06/27 10:42:02;;;;;;;6.25;3.40;;;;;;;26.11;41.77;101083.69;5051481;28;20052;-82
2021/06/27 10:44:32;;;;;;;5.05;3.85;;;;;;;26.10;42.22;101087.41;5048946;28;20102;-81
2021/06/27 10:46:59;;;;;;;5.13;4.10;;;;;;;25.97;42.42;101082.06;5045885;28;20063;-82
2021/06/27 10:49:33;;;;;;;4.10;3.70;;;;;;;26.22;43.58;101085.56;5045652;28;20045;-82
2021/06/27 10:52:18;;;;;;;6.00;3.78;;;;;;;26.74;42.30;101082.28;5065647;28;20029;-82
2021/06/27 10:55:14;;;;;;;4.65;3.88;;;;;;;27.03;39.78;101077.19;5044623;28;20132;-81
2021/06/27 10:57:56;;;;;;;4.40;4.00;;;;;;;27.06;40.90;101076.91;5081753;28;20051;-82
2021/06/27 11:00:24;;;;;;;4.32;3.92;;;;;;;27.07;41.67;101069.63;5051156;28;20064;-83
2021/06/27 11:02:54;;;;;;;4.30;3.90;;;;;;;26.54;41.62;101074.88;5048512;28;20049;-83
2021/06/27 11:05:32;;;;;;;4.57;4.03;;;;;;;26.63;42.08;101064.16;5066059;28;20040;-83
2021/06/27 11:08:01;;;;;;;5.82;4.30;;;;;;;27.04;42.19;101068.06;5078349;28;21537;-83
2021/06/27 11:10:28;;;;;;;4.05;3.72;;;;;;;27.50;41.83;101072.34;5049295;28;20559;-84
2021/06/27 11:13:02;;;;;;;4.30;3.90;;;;;;;27.68;41.57;101072.66;5062148;28;20040;-83
2021/06/27 11:15:32;;;;;;;6.90;4.30;;;;;;;27.80;42.58;101071.59;5053967;28;20059;-85
2021/06/27 11:18:01;;;;;;;4.47;4.07;;;;;;;27.71;39.04;101066.94;5046545;28;20045;-84
2021/06/27 11:20:30;;;;;;;5.97;4.00;;;;;;;27.52;39.34;101064.94;5027144;28;20044;-83
2021/06/27 11:22:57;;;;;;;5.28;4.50;;;;;;;27.29;39.74;101072.28;5048821;28;20068;-82
2021/06/27 11:25:35;;;;;;;4.32;3.88;;;;;;;26.86;40.95;101075.84;5029792;28;20045;-82
2021/06/27 11:28:18;;;;;;;4.45;4.05;;;;;;;26.52;40.93;101066.03;5062489;28;20037;-83